Time;durP1;ratioP1;P1;durP2;ratioP2;P2;SDS_P1;SDS_P2;PMS_P1;PMS_P2;Temp;Humidity;BMP_temperature;BMP_pressure;BME280_temperature;BME280_humidity;BME280_pressure;Samples;Min_cycle;Max_cycle;Signal;HPM_P1;HPM_P2
2021/06/03 00:00:38;;;;;;;4.85;1.42;;;18.40;40.60;;;;;;4993664;28;20105;-66
2021/06/03 00:03:06;;;;;;;4.25;2.05;;;18.30;40.70;;;;;;4993923;28;20022;-66
2021/06/03 00:05:46;;;;;;;2.78;1.92;;;18.30;40.60;;;;;;4993522;28;20496;-66
2021/06/03 00:08:13;;;;;;;2.28;1.73;;;18.20;41.00;;;;;;4993613;28;20031;-66
2021/06/03 00:10:44;;;;;;;3.28;2.05;;;18.20;41.10;;;;;;4993450;28;20396;-66
2021/06/03 00:13:11;;;;;;;3.33;1.80;;;18.20;41.60;;;;;;4993533;28;20035;-66
2021/06/03 00:15:37;;;;;;;2.28;1.75;;;18.10;41.20;;;;;;4993813;28;20018;-66
2021/06/03 00:18:04;;;;;;;3.00;1.75;;;18.10;41.40;;;;;;4993509;28;20095;-67
2021/06/03 00:20:32;;;;;;;3.90;1.95;;;18.10;41.60;;;;;;4993520;28;20434;-66
2021/06/03 00:22:58;;;;;;;4.80;1.80;;;18.10;42.10;;;;;;4993494;28;20034;-66
2021/06/03 00:25:26;;;;;;;3.00;2.03;;;18.00;42.00;;;;;;4993384;28;20027;-66
2021/06/03 00:27:53;;;;;;;2.45;1.90;;;18.00;42.00;;;;;;4993399;28;20027;-66
2021/06/03 00:30:19;;;;;;;3.28;2.10;;;18.00;42.00;;;;;;4993342;28;20445;-66
2021/06/03 00:32:45;;;;;;;3.92;2.70;;;17.90;42.10;;;;;;4993714;28;20104;-66
2021/06/03 00:35:11;;;;;;;3.70;2.28;;;17.90;42.30;;;;;;5011607;28;20054;-66
2021/06/03 00:37:38;;;;;;;5.10;3.47;;;17.90;42.50;;;;;;5006990;28;20543;-66
2021/06/03 00:40:10;;;;;;;7.60;4.93;;;17.80;42.70;;;;;;4993327;28;20380;-66
2021/06/03 00:42:36;;;;;;;3.08;2.20;;;17.80;43.10;;;;;;4993165;28;20023;-66
2021/06/03 00:45:04;;;;;;;3.25;2.00;;;17.70;42.60;;;;;;4992081;28;20030;-66
2021/06/03 00:47:30;;;;;;;2.80;1.80;;;17.70;43.00;;;;;;4993289;28;20022;-66
2021/06/03 00:49:56;;;;;;;2.40;1.60;;;17.70;42.90;;;;;;4993219;28;20073;-66
2021/06/03 00:52:22;;;;;;;4.57;2.40;;;17.60;43.00;;;;;;4993223;28;20022;-66
2021/06/03 00:54:48;;;;;;;3.30;2.20;;;17.60;44.00;;;;;;4993031;28;20042;-66
2021/06/03 00:57:14;;;;;;;3.58;1.98;;;17.60;43.80;;;;;;4992842;28;20423;-66
2021/06/03 00:59:40;;;;;;;2.75;1.98;;;17.50;43.80;;;;;;5006952;28;20026;-67
2021/06/03 01:02:06;;;;;;;4.20;2.40;;;17.50;43.80;;;;;;5005618;28;20026;-66
2021/06/03 01:04:32;;;;;;;4.00;2.40;;;17.40;44.00;;;;;;5002984;28;20033;-66
2021/06/03 01:06:58;;;;;;;2.83;1.88;;;17.50;44.00;;;;;;5007362;28;20542;-66
2021/06/03 01:09:53;;;;;;;2.50;1.98;;;17.40;44.10;;;;;;5016208;28;20101;-66
2021/06/03 01:12:24;;;;;;;4.85;2.30;;;17.30;44.60;;;;;;5018895;28;20073;-66
2021/06/03 01:14:52;;;;;;;3.80;1.75;;;17.30;44.80;;;;;;4996624;28;20023;-66
2021/06/03 01:17:21;;;;;;;5.35;1.85;;;17.30;44.40;;;;;;4996275;28;20464;-66
2021/06/03 01:19:50;;;;;;;2.90;2.00;;;17.20;44.60;;;;;;4996415;28;20476;-66
2021/06/03 01:22:19;;;;;;;2.13;1.67;;;17.20;44.80;;;;;;4996522;28;20035;-66
2021/06/03 01:24:56;;;;;;;6.20;2.00;;;17.20;44.90;;;;;;5012338;28;20068;-66
2021/06/03 01:27:28;;;;;;;3.08;2.30;;;17.20;45.20;;;;;;5014153;28;20037;-66
2021/06/03 01:30:01;;;;;;;3.20;1.80;;;17.10;45.40;;;;;;5000725;28;20027;-66
2021/06/03 01:32:29;;;;;;;2.10;1.70;;;17.10;45.30;;;;;;5007827;28;20029;-66
2021/06/03 01:34:56;;;;;;;3.75;2.33;;;17.10;45.30;;;;;;5014985;28;20037;-66
2021/06/03 01:37:23;;;;;;;2.78;2.05;;;17.00;45.40;;;;;;5004282;28;20108;-66
2021/06/03 01:39:49;;;;;;;4.97;1.95;;;17.00;45.50;;;;;;5014876;28;20026;-66
2021/06/03 01:42:18;;;;;;;3.83;2.17;;;17.00;45.50;;;;;;5015537;28;20084;-66
2021/06/03 01:44:45;;;;;;;4.63;2.58;;;17.00;45.90;;;;;;5000499;28;20026;-66
2021/06/03 01:47:12;;;;;;;4.40;2.33;;;16.90;46.40;;;;;;4996781;28;20085;-66
2021/06/03 01:49:39;;;;;;;2.65;2.00;;;16.90;46.10;;;;;;4995906;28;20041;-66
2021/06/03 01:52:07;;;;;;;3.25;2.20;;;16.90;46.10;;;;;;4995757;28;20053;-66
2021/06/03 01:54:33;;;;;;;3.45;2.35;;;16.90;46.30;;;;;;4995496;28;20046;-66
2021/06/03 01:57:00;;;;;;;2.72;1.88;;;16.90;46.30;;;;;;4998514;28;20058;-66
2021/06/03 01:59:26;;;;;;;3.55;2.33;;;16.80;46.30;;;;;;4995583;28;20022;-66
2021/06/03 02:01:52;;;;;;;3.95;2.20;;;16.80;46.30;;;;;;4995971;28;20022;-66
2021/06/03 02:04:18;;;;;;;5.32;2.35;;;16.80;46.40;;;;;;4995616;28;20101;-66
2021/06/03 02:06:44;;;;;;;2.88;1.95;;;16.70;46.40;;;;;;4995466;28;20450;-66
2021/06/03 02:09:12;;;;;;;3.85;2.30;;;16.70;46.60;;;;;;4995222;28;20026;-66
2021/06/03 02:11:39;;;;;;;4.35;2.70;;;16.60;46.80;;;;;;4995321;28;20578;-66
2021/06/03 02:14:09;;;;;;;3.13;1.77;;;16.60;47.00;;;;;;4995642;28;20061;-66
2021/06/03 02:16:44;;;;;;;3.53;2.58;;;16.60;46.90;;;;;;4995399;28;20026;-66
2021/06/03 02:19:14;;;;;;;2.78;2.10;;;16.60;47.40;;;;;;4994131;28;20042;-66
2021/06/03 02:21:43;;;;;;;3.00;2.08;;;16.60;47.20;;;;;;4995133;28;20061;-66
2021/06/03 02:24:09;;;;;;;3.78;2.15;;;16.60;47.00;;;;;;4995239;28;20022;-66
2021/06/03 02:26:39;;;;;;;3.63;2.40;;;16.50;47.20;;;;;;4995216;28;20031;-66
2021/06/03 02:29:05;;;;;;;4.45;2.60;;;16.50;47.40;;;;;;4995128;28;20031;-66
2021/06/03 02:31:32;;;;;;;7.28;2.78;;;16.50;47.30;;;;;;4997330;28;20027;-66
2021/06/03 02:33:58;;;;;;;5.25;2.75;;;16.50;47.60;;;;;;5014364;28;20112;-66
2021/06/03 02:36:23;;;;;;;6.50;2.30;;;16.50;47.50;;;;;;4995947;28;20070;-66
2021/06/03 02:38:49;;;;;;;8.70;2.13;;;16.50;47.30;;;;;;4994764;28;20048;-66
2021/06/03 02:41:15;;;;;;;9.50;2.47;;;16.50;47.30;;;;;;4994722;28;20034;-66
2021/06/03 02:43:46;;;;;;;5.95;2.63;;;16.40;47.40;;;;;;4994762;28;20026;-66
2021/06/03 02:46:16;;;;;;;3.63;2.78;;;16.50;47.80;;;;;;4994792;28;20027;-66
2021/06/03 02:48:42;;;;;;;5.20;2.60;;;16.40;48.00;;;;;;4994871;28;20573;-66
2021/06/03 02:51:08;;;;;;;4.13;2.65;;;16.40;47.90;;;;;;4994605;28;20026;-66
2021/06/03 02:53:33;;;;;;;4.70;2.45;;;16.50;48.00;;;;;;4994254;28;20050;-66
2021/06/03 02:55:59;;;;;;;2.70;2.13;;;16.40;47.90;;;;;;4994656;28;20023;-66
2021/06/03 02:58:26;;;;;;;5.78;2.70;;;16.40;47.90;;;;;;4994502;28;20085;-66
2021/06/03 03:00:52;;;;;;;17.90;3.63;;;16.30;48.20;;;;;;4994537;28;20423;-66
2021/06/03 03:03:18;;;;;;;4.72;2.92;;;16.30;48.50;;;;;;4994467;28;20081;-66
2021/06/03 03:05:45;;;;;;;4.55;2.42;;;16.30;49.00;;;;;;4994294;28;20054;-66
2021/06/03 03:08:11;;;;;;;7.60;2.35;;;16.30;48.70;;;;;;4994628;28;20081;-66
2021/06/03 03:10:43;;;;;;;3.90;2.38;;;16.30;48.60;;;;;;4994318;28;20026;-66
2021/06/03 03:13:09;;;;;;;6.18;2.30;;;16.30;48.50;;;;;;5002659;28;20507;-66
2021/06/03 03:15:36;;;;;;;5.82;2.13;;;16.20;48.50;;;;;;5013901;28;20026;-66
2021/06/03 03:18:02;;;;;;;3.60;2.15;;;16.20;48.40;;;;;;5013812;28;20021;-66
2021/06/03 03:20:29;;;;;;;2.58;2.25;;;16.20;48.40;;;;;;5013518;28;20026;-66
2021/06/03 03:22:55;;;;;;;4.05;2.58;;;16.20;48.80;;;;;;5000871;28;20106;-66
2021/06/03 03:25:24;;;;;;;2.90;1.98;;;16.20;49.10;;;;;;4994014;28;20034;-66
2021/06/03 03:27:50;;;;;;;2.65;2.25;;;16.20;48.90;;;;;;4993967;28;20026;-66
2021/06/03 03:30:18;;;;;;;4.28;2.30;;;16.20;49.00;;;;;;4993976;28;20026;-66
2021/06/03 03:32:44;;;;;;;5.43;2.38;;;16.20;49.10;;;;;;4994145;28;20029;-66
2021/06/03 03:35:10;;;;;;;6.25;2.85;;;16.20;49.00;;;;;;4994103;28;20277;-66
2021/06/03 03:37:37;;;;;;;3.40;2.00;;;16.20;49.10;;;;;;4993926;28;20380;-66
2021/06/03 03:40:05;;;;;;;2.88;1.98;;;16.30;49.20;;;;;;4993772;28;20066;-66
2021/06/03 03:42:31;;;;;;;3.65;2.40;;;16.20;49.10;;;;;;4993818;28;20030;-66
2021/06/03 03:44:57;;;;;;;5.72;2.60;;;16.20;49.10;;;;;;4993880;28;20027;-66
2021/06/03 03:47:23;;;;;;;4.18;2.60;;;16.30;49.20;;;;;;4993813;28;20551;-66
2021/06/03 03:49:49;;;;;;;3.97;2.65;;;16.30;49.50;;;;;;5010856;28;20105;-66
2021/06/03 03:52:14;;;;;;;10.23;2.78;;;16.30;50.60;;;;;;5033015;28;20026;-66
2021/06/03 03:54:40;;;;;;;4.80;2.80;;;16.30;50.20;;;;;;5010712;28;20408;-66
2021/06/03 03:57:06;;;;;;;7.57;3.10;;;16.30;50.30;;;;;;4992421;28;20034;-66
2021/06/03 03:59:32;;;;;;;5.78;2.60;;;16.30;50.10;;;;;;4992413;28;20133;-66
2021/06/03 04:01:58;;;;;;;2.35;1.92;;;16.40;50.70;;;;;;4993702;28;20500;-66
2021/06/03 04:04:24;;;;;;;3.40;2.15;;;16.40;50.00;;;;;;5012243;28;20408;-66
2021/06/03 04:06:51;;;;;;;4.43;2.75;;;16.40;49.90;;;;;;5007744;28;20029;-66
2021/06/03 04:09:17;;;;;;;5.43;2.50;;;16.40;50.10;;;;;;4993410;28;20053;-66
2021/06/03 04:11:43;;;;;;;6.20;2.40;;;16.40;50.40;;;;;;4993521;28;20094;-66
2021/06/03 04:14:09;;;;;;;3.47;2.38;;;16.50;50.50;;;;;;4993631;28;20034;-66
2021/06/03 04:16:35;;;;;;;3.45;2.65;;;16.50;50.40;;;;;;4993817;28;20030;-66
2021/06/03 04:19:01;;;;;;;4.38;2.60;;;16.60;50.60;;;;;;4993498;28;20030;-66
2021/06/03 04:21:27;;;;;;;4.68;2.35;;;16.60;50.50;;;;;;4993404;28;20033;-66
2021/06/03 04:23:53;;;;;;;5.18;3.05;;;16.60;50.50;;;;;;4993455;28;20380;-66
2021/06/03 04:26:19;;;;;;;4.20;2.70;;;16.70;50.50;;;;;;4993442;28;20043;-66
2021/06/03 04:28:45;;;;;;;6.60;2.50;;;16.70;50.60;;;;;;4992156;28;20031;-66
2021/06/03 04:31:11;;;;;;;3.03;2.50;;;16.80;50.50;;;;;;4993334;28;20479;-66
2021/06/03 04:33:37;;;;;;;3.60;2.55;;;16.80;50.10;;;;;;4996324;28;20392;-66
2021/06/03 04:36:04;;;;;;;4.75;2.42;;;16.90;50.00;;;;;;4997298;28;20041;-67
2021/06/03 04:38:30;;;;;;;4.38;2.53;;;16.90;50.00;;;;;;4997139;28;20022;-66
2021/06/03 04:40:56;;;;;;;3.83;3.00;;;16.90;49.90;;;;;;4997128;28;20085;-66
2021/06/03 04:43:22;;;;;;;2.75;2.45;;;17.00;50.00;;;;;;4996984;28;20050;-66
2021/06/03 04:45:48;;;;;;;6.88;2.80;;;17.00;50.00;;;;;;4997052;28;20457;-66
2021/06/03 04:48:14;;;;;;;6.05;2.60;;;17.00;49.90;;;;;;4996858;28;20041;-66
2021/06/03 04:50:40;;;;;;;7.53;3.03;;;17.10;49.90;;;;;;4996805;28;20407;-66
2021/06/03 04:53:07;;;;;;;6.35;3.00;;;17.20;50.00;;;;;;4996887;28;20042;-66
2021/06/03 04:55:34;;;;;;;5.50;3.20;;;17.20;49.80;;;;;;4996860;28;20026;-66
2021/06/03 04:58:00;;;;;;;3.47;2.70;;;17.30;49.60;;;;;;4996664;28;20030;-66
2021/06/03 05:00:31;;;;;;;3.42;2.53;;;17.30;49.30;;;;;;5012696;28;20110;-66
2021/06/03 05:02:58;;;;;;;5.25;2.75;;;17.40;49.30;;;;;;5006941;28;20041;-66
2021/06/03 05:05:24;;;;;;;3.05;2.25;;;17.40;49.10;;;;;;4996692;28;20026;-66
2021/06/03 05:07:51;;;;;;;4.32;2.55;;;17.50;49.00;;;;;;4996530;28;20372;-66
2021/06/03 05:10:18;;;;;;;4.15;3.03;;;17.60;49.00;;;;;;5012039;28;20045;-66
2021/06/03 05:12:45;;;;;;;4.15;2.70;;;17.60;48.90;;;;;;5011769;28;20026;-66
2021/06/03 05:15:12;;;;;;;4.60;2.78;;;17.70;48.80;;;;;;4996521;28;20383;-66
2021/06/03 05:17:38;;;;;;;3.83;2.50;;;17.80;48.80;;;;;;4996394;28;20023;-67
2021/06/03 05:20:07;;;;;;;3.92;2.78;;;17.80;48.80;;;;;;4996577;28;20026;-67
2021/06/03 05:22:33;;;;;;;4.32;2.90;;;17.90;48.60;;;;;;4996390;28;20026;-66
2021/06/03 05:24:58;;;;;;;4.03;2.78;;;18.00;48.80;;;;;;5001431;28;20026;-66
2021/06/03 05:27:24;;;;;;;6.10;2.67;;;18.00;48.60;;;;;;5002706;28;20026;-66
2021/06/03 05:29:50;;;;;;;6.38;3.10;;;18.10;48.60;;;;;;5011298;28;20026;-66
2021/06/03 05:32:16;;;;;;;3.78;2.60;;;18.10;48.70;;;;;;4996288;28;20042;-66
2021/06/03 05:34:42;;;;;;;7.43;3.45;;;18.20;48.60;;;;;;4995644;28;20084;-66
2021/06/03 05:37:08;;;;;;;5.60;2.72;;;18.20;48.50;;;;;;4996038;28;20388;-66
2021/06/03 05:39:34;;;;;;;12.95;2.80;;;18.30;48.50;;;;;;5009361;28;20534;-66
2021/06/03 05:42:01;;;;;;;2.67;2.25;;;18.40;48.20;;;;;;4995853;28;20061;-66
2021/06/03 05:44:27;;;;;;;4.20;2.22;;;18.40;48.10;;;;;;4994880;28;20472;-66
2021/06/03 05:46:53;;;;;;;4.20;2.65;;;18.50;47.90;;;;;;4995785;28;20041;-67
2021/06/03 05:49:18;;;;;;;6.45;3.10;;;18.60;47.80;;;;;;4995739;28;20030;-66
2021/06/03 05:51:44;;;;;;;5.43;2.75;;;18.60;47.70;;;;;;4996578;28;20022;-66
2021/06/03 05:54:10;;;;;;;4.10;2.90;;;18.70;47.70;;;;;;4995315;28;20057;-66
2021/06/03 05:56:37;;;;;;;4.50;3.05;;;18.80;47.60;;;;;;4995792;28;20050;-66
2021/06/03 05:59:03;;;;;;;5.38;2.58;;;18.80;47.50;;;;;;4995735;28;20023;-66
2021/06/03 06:01:29;;;;;;;5.97;3.20;;;18.90;47.50;;;;;;5005431;28;20084;-66
2021/06/03 06:06:27;;;;;;;6.45;3.92;;;19.00;47.30;;;;;;4995459;28;20104;-67
2021/06/03 06:08:56;;;;;;;7.65;5.22;;;19.10;47.30;;;;;;4995587;28;20034;-66
2021/06/03 06:11:28;;;;;;;13.20;5.68;;;19.20;47.10;;;;;;4995399;28;20102;-67
2021/06/03 06:13:54;;;;;;;17.17;5.97;;;19.20;46.80;;;;;;4995267;28;20546;-66
2021/06/03 06:16:20;;;;;;;13.52;6.03;;;19.30;47.10;;;;;;4995325;28;20380;-66
2021/06/03 06:18:46;;;;;;;11.75;6.28;;;19.40;46.90;;;;;;4995121;28;20106;-67
2021/06/03 06:21:18;;;;;;;16.05;8.10;;;19.50;47.20;;;;;;5004069;28;20546;-67
2021/06/03 06:23:45;;;;;;;10.52;6.53;;;19.60;46.40;;;;;;5014708;28;20071;-67
2021/06/03 06:26:11;;;;;;;14.57;7.43;;;19.60;46.10;;;;;;5014609;28;20042;-66
2021/06/03 06:28:37;;;;;;;11.18;6.80;;;19.70;45.90;;;;;;5013377;28;20037;-68
2021/06/03 06:31:05;;;;;;;10.55;5.93;;;19.80;45.60;;;;;;4997948;28;20384;-67
2021/06/03 06:33:32;;;;;;;13.57;6.07;;;19.90;45.40;;;;;;5008142;28;20029;-67
2021/06/03 06:35:58;;;;;;;12.15;5.97;;;20.00;45.10;;;;;;5010203;28;20105;-67
2021/06/03 06:38:24;;;;;;;11.32;6.00;;;20.00;45.10;;;;;;5011947;28;20097;-67
2021/06/03 06:40:52;;;;;;;11.80;5.72;;;20.10;45.10;;;;;;5014104;28;20040;-67
2021/06/03 06:43:18;;;;;;;16.52;6.05;;;20.20;44.70;;;;;;5012028;28;20106;-67
2021/06/03 06:45:45;;;;;;;14.70;5.35;;;20.30;44.50;;;;;;4994531;28;20022;-67
2021/06/03 06:48:13;;;;;;;13.00;5.28;;;20.40;44.50;;;;;;4994646;28;20018;-67
2021/06/03 06:50:39;;;;;;;10.65;5.30;;;20.50;44.30;;;;;;4994581;28;20037;-67
2021/06/03 06:53:07;;;;;;;8.52;4.80;;;20.60;44.30;;;;;;4994328;28;20041;-67
2021/06/03 06:55:33;;;;;;;8.13;4.85;;;20.70;44.20;;;;;;4993762;28;20480;-67
2021/06/03 06:57:59;;;;;;;15.55;4.65;;;20.70;43.80;;;;;;4993022;28;20033;-67
2021/06/03 07:00:27;;;;;;;7.35;4.30;;;20.80;43.60;;;;;;4994417;28;20361;-67
2021/06/03 07:02:53;;;;;;;9.93;5.45;;;20.90;43.20;;;;;;4994476;28;20471;-67
2021/06/03 07:05:19;;;;;;;12.00;5.15;;;21.00;42.70;;;;;;4992942;28;20045;-67
2021/06/03 07:07:45;;;;;;;14.90;5.22;;;21.00;42.60;;;;;;4994309;28;20022;-67
2021/06/03 07:10:12;;;;;;;13.52;5.00;;;21.10;42.30;;;;;;4994034;28;20383;-67
2021/06/03 07:12:39;;;;;;;9.65;4.18;;;21.20;42.30;;;;;;4996559;28;20019;-67
2021/06/03 07:15:07;;;;;;;5.53;3.90;;;21.20;42.10;;;;;;5012051;28;20022;-68
2021/06/03 07:17:33;;;;;;;12.73;5.32;;;21.30;42.00;;;;;;5013566;28;20030;-67
2021/06/03 07:19:58;;;;;;;11.50;4.85;;;21.40;41.90;;;;;;5013717;28;20529;-67
2021/06/03 07:22:24;;;;;;;7.75;4.82;;;21.50;41.60;;;;;;5006217;28;20030;-68
2021/06/03 07:24:50;;;;;;;8.45;4.65;;;21.50;41.50;;;;;;5009896;28;20527;-67
2021/06/03 07:27:16;;;;;;;5.72;4.18;;;21.60;41.30;;;;;;5011785;28;20042;-67
2021/06/03 07:29:42;;;;;;;7.70;3.92;;;21.60;41.10;;;;;;4993956;28;20484;-67
2021/06/03 07:32:08;;;;;;;7.07;4.20;;;21.70;41.00;;;;;;5010667;28;20152;-68
2021/06/03 07:34:35;;;;;;;7.68;4.05;;;21.80;40.70;;;;;;5013413;28;20050;-67
2021/06/03 07:37:01;;;;;;;8.68;3.90;;;21.80;40.60;;;;;;5013563;28;20026;-67
2021/06/03 07:39:28;;;;;;;6.07;3.58;;;21.90;40.70;;;;;;5013320;28;20117;-67
2021/06/03 07:41:54;;;;;;;9.95;3.75;;;21.90;40.70;;;;;;5013580;28;20025;-67
2021/06/03 07:44:20;;;;;;;7.93;3.70;;;22.00;40.70;;;;;;5012068;28;20030;-67
2021/06/03 07:46:47;;;;;;;9.73;5.13;;;22.10;40.60;;;;;;5012148;28;20391;-67
2021/06/03 07:49:13;;;;;;;8.80;4.53;;;22.10;40.60;;;;;;5013367;28;20105;-67
2021/06/03 07:51:43;;;;;;;6.95;3.80;;;22.10;40.30;;;;;;5013298;28;20113;-68
2021/06/03 07:54:10;;;;;;;4.72;3.15;;;22.20;40.30;;;;;;5013109;28;20065;-67
2021/06/03 07:56:36;;;;;;;13.32;4.55;;;22.30;40.30;;;;;;5007899;28;20022;-67
2021/06/03 07:59:02;;;;;;;5.88;3.67;;;22.40;40.00;;;;;;4993680;28;20027;-67
2021/06/03 08:01:28;;;;;;;6.25;3.92;;;22.40;39.90;;;;;;4993458;28;20030;-67
2021/06/03 08:03:55;;;;;;;14.80;5.40;;;22.50;39.90;;;;;;5002899;28;20037;-65
2021/06/03 08:06:21;;;;;;;6.43;3.78;;;22.60;39.70;;;;;;5005455;28;20455;-68
2021/06/03 08:08:47;;;;;;;7.55;3.28;;;22.70;39.50;;;;;;4996892;28;20030;-65
2021/06/03 08:11:13;;;;;;;8.02;3.17;;;22.70;39.50;;;;;;4997588;28;20041;-66
2021/06/03 08:13:40;;;;;;;5.20;3.45;;;22.80;39.70;;;;;;4997546;28;20106;-65
2021/06/03 08:16:05;;;;;;;6.57;3.83;;;22.90;39.50;;;;;;4997493;28;20018;-66
2021/06/03 08:18:32;;;;;;;11.63;4.57;;;22.90;39.40;;;;;;4997428;28;20026;-65
2021/06/03 08:21:00;;;;;;;4.90;3.20;;;23.00;39.30;;;;;;5001542;28;20056;-65
2021/06/03 08:23:28;;;;;;;6.28;3.97;;;23.10;39.40;;;;;;5016843;28;20119;-65
2021/06/03 08:25:56;;;;;;;6.40;4.20;;;23.20;39.40;;;;;;5014892;28;20408;-66
2021/06/03 08:28:24;;;;;;;11.27;4.70;;;23.20;38.80;;;;;;4997224;28;20022;-65
2021/06/03 08:30:51;;;;;;;13.48;5.93;;;23.30;38.60;;;;;;4997195;28;20120;-65
2021/06/03 08:33:18;;;;;;;12.90;6.07;;;23.40;39.00;;;;;;4997519;28;20022;-66
2021/06/03 08:35:44;;;;;;;9.90;4.30;;;23.50;38.20;;;;;;5004272;28;20022;-66
2021/06/03 08:38:11;;;;;;;6.88;4.45;;;23.50;38.30;;;;;;5016727;28;20054;-65
2021/06/03 08:40:52;;;;;;;9.50;5.38;;;23.60;38.40;;;;;;5014086;28;20376;-66
2021/06/03 08:43:20;;;;;;;7.93;4.88;;;23.70;38.00;;;;;;5003005;28;20034;-66
2021/06/03 08:45:47;;;;;;;7.93;4.75;;;23.70;37.90;;;;;;5000497;28;20026;-68
2021/06/03 08:48:13;;;;;;;8.68;5.10;;;23.80;37.70;;;;;;5014758;28;20458;-66
2021/06/03 08:50:42;;;;;;;5.80;4.40;;;23.80;37.80;;;;;;5021995;28;20388;-66
2021/06/03 08:53:08;;;;;;;7.35;4.30;;;23.90;37.00;;;;;;5013429;28;20080;-66
2021/06/03 08:58:22;;;;;;;8.63;3.50;;;24.00;37.00;;;;;;5014194;28;20041;-66
2021/06/03 09:00:48;;;;;;;4.93;3.33;;;24.10;36.70;;;;;;4997407;28;20111;-66
2021/06/03 09:03:15;;;;;;;6.60;3.97;;;24.20;36.40;;;;;;5003071;28;20034;-67
2021/06/03 09:05:42;;;;;;;8.27;3.80;;;24.30;36.00;;;;;;4999867;28;20069;-67
2021/06/03 09:08:21;;;;;;;4.88;3.10;;;24.40;35.50;;;;;;5005501;28;20048;-67
2021/06/03 09:11:00;;;;;;;7.50;4.78;;;24.40;35.20;;;;;;5015437;28;20032;-67
2021/06/03 09:13:29;;;;;;;8.27;4.85;;;24.50;35.00;;;;;;5003806;28;20113;-66
2021/06/03 09:16:14;;;;;;;7.13;4.68;;;24.50;34.80;;;;;;5015757;28;20097;-67
2021/06/03 09:18:58;;;;;;;10.23;4.28;;;24.60;35.80;;;;;;5003346;28;20065;-67
2021/06/03 09:21:34;;;;;;;6.07;3.40;;;24.60;35.30;;;;;;4996276;28;20097;-66
2021/06/03 09:24:10;;;;;;;8.18;4.50;;;24.80;35.70;;;;;;5001452;28;20060;-67
2021/06/03 09:26:57;;;;;;;6.30;4.50;;;24.80;35.00;;;;;;4995778;28;20029;-66
2021/06/03 09:29:30;;;;;;;8.13;4.15;;;24.90;35.50;;;;;;4996019;28;20049;-66
2021/06/03 09:32:04;;;;;;;12.77;4.78;;;25.00;35.00;;;;;;4994365;28;20088;-67
2021/06/03 09:34:30;;;;;;;4.38;3.20;;;25.00;35.10;;;;;;5000054;28;20328;-67
2021/06/03 09:37:02;;;;;;;6.70;3.63;;;25.10;34.70;;;;;;4996128;28;20028;-67
2021/06/03 09:39:43;;;;;;;9.82;5.90;;;25.10;34.30;;;;;;5014381;28;20582;-67
2021/06/03 09:42:14;;;;;;;6.30;3.55;;;25.20;34.50;;;;;;5014199;28;22170;-67
2021/06/03 09:44:49;;;;;;;4.20;2.97;;;25.20;34.40;;;;;;5007248;28;20083;-67
2021/06/03 09:47:17;;;;;;;9.55;5.35;;;25.30;34.50;;;;;;5012657;28;20034;-67
2021/06/03 09:49:44;;;;;;;5.53;3.50;;;25.30;34.90;;;;;;5002227;28;20588;-67
2021/06/03 09:52:20;;;;;;;12.15;5.18;;;25.40;33.80;;;;;;5011199;28;20421;-67
2021/06/03 09:54:51;;;;;;;8.23;4.60;;;25.40;33.50;;;;;;5008612;28;20108;-67
2021/06/03 09:57:18;;;;;;;12.13;4.22;;;25.40;33.70;;;;;;5014121;28;20030;-68
2021/06/03 09:59:46;;;;;;;8.65;4.88;;;25.50;33.90;;;;;;5014358;28;20045;-67
2021/06/03 10:02:21;;;;;;;11.60;4.57;;;25.50;34.10;;;;;;5011352;28;20042;-67
2021/06/03 10:04:51;;;;;;;7.95;3.95;;;25.50;34.00;;;;;;4998850;28;20061;-67
2021/06/03 10:07:23;;;;;;;5.00;2.88;;;25.60;33.70;;;;;;5013842;28;20022;-67
2021/06/03 10:09:50;;;;;;;7.93;4.32;;;25.60;33.30;;;;;;5010374;28;20440;-67
2021/06/03 10:12:25;;;;;;;5.53;3.45;;;25.70;33.80;;;;;;5010469;28;20065;-64
2021/06/03 10:15:14;;;;;;;7.15;4.03;;;25.70;33.30;;;;;;5012106;28;20483;-64
2021/06/03 10:17:55;;;;;;;7.80;4.40;;;25.80;33.30;;;;;;5016976;28;20476;-67
2021/06/03 10:20:45;;;;;;;7.63;4.80;;;25.80;33.70;;;;;;5004603;28;20030;-65
2021/06/03 10:23:20;;;;;;;8.43;4.90;;;25.80;33.60;;;;;;5007323;28;20042;-65
2021/06/03 10:25:48;;;;;;;8.68;4.45;;;25.90;33.60;;;;;;4995036;28;20026;-65
2021/06/03 10:28:20;;;;;;;7.82;4.43;;;26.00;33.30;;;;;;4995124;28;20068;-65
2021/06/03 10:30:52;;;;;;;4.20;3.55;;;26.00;33.30;;;;;;5029226;28;20380;-65
2021/06/03 10:33:24;;;;;;;6.45;2.90;;;26.10;32.70;;;;;;5010449;28;20025;-65
2021/06/03 10:35:56;;;;;;;7.13;3.22;;;26.20;32.60;;;;;;5020130;28;20029;-65
2021/06/03 10:38:22;;;;;;;6.95;3.80;;;26.20;32.60;;;;;;5012840;28;20014;-65
2021/06/03 10:40:55;;;;;;;8.57;4.00;;;26.20;32.30;;;;;;5034071;28;20666;-65
2021/06/03 10:43:21;;;;;;;6.22;3.55;;;26.30;32.00;;;;;;5014371;28;20038;-65
2021/06/03 10:45:47;;;;;;;6.80;3.13;;;26.30;32.00;;;;;;5002474;28;20030;-65
2021/06/03 10:48:13;;;;;;;7.32;4.45;;;26.40;31.70;;;;;;5012258;28;20021;-65
2021/06/03 10:50:40;;;;;;;6.65;4.22;;;26.40;31.60;;;;;;5019626;28;20029;-65
2021/06/03 10:53:09;;;;;;;4.30;3.03;;;26.50;32.30;;;;;;5021271;28;20092;-65
2021/06/03 10:55:40;;;;;;;5.13;2.78;;;26.50;31.10;;;;;;5014156;28;20029;-65
2021/06/03 10:58:08;;;;;;;6.78;3.22;;;26.50;30.60;;;;;;5014202;28;20033;-66
2021/06/03 11:00:36;;;;;;;3.95;3.05;;;26.60;30.80;;;;;;5012152;28;20109;-65
2021/06/03 11:03:35;;;;;;;5.25;2.67;;;26.60;30.30;;;;;;4994825;28;20412;-65
2021/06/03 11:06:05;;;;;;;7.60;3.60;;;26.80;30.20;;;;;;4994363;28;20034;-65
2021/06/03 11:08:45;;;;;;;12.02;5.40;;;26.80;30.10;;;;;;5011744;28;20033;-65
2021/06/03 11:11:14;;;;;;;8.43;4.93;;;26.90;30.00;;;;;;5010534;28;20034;-65
2021/06/03 11:13:48;;;;;;;6.60;4.47;;;26.90;30.00;;;;;;4994961;28;20018;-65
2021/06/03 11:16:19;;;;;;;5.85;3.95;;;27.00;30.20;;;;;;5015225;28;20030;-65
2021/06/03 11:18:44;;;;;;;5.35;3.63;;;27.10;29.30;;;;;;5010384;28;20322;-65
2021/06/03 11:21:32;;;;;;;6.60;3.88;;;27.20;27.80;;;;;;5010429;28;20038;-65
2021/06/03 11:24:06;;;;;;;6.00;4.00;;;27.30;28.60;;;;;;5008698;28;20029;-65
2021/06/03 11:26:41;;;;;;;10.77;5.78;;;27.30;28.80;;;;;;5012383;28;20049;-65
2021/06/03 11:29:11;;;;;;;10.80;4.85;;;27.40;29.30;;;;;;5013489;28;20036;-65
2021/06/03 11:31:39;;;;;;;6.25;4.28;;;27.50;29.30;;;;;;5002194;28;20046;-65
2021/06/03 11:34:14;;;;;;;6.50;4.38;;;27.60;29.30;;;;;;4993943;28;20018;-65
2021/06/03 11:36:42;;;;;;;6.53;4.95;;;27.70;29.90;;;;;;4993535;28;20022;-65
2021/06/03 11:39:31;;;;;;;7.43;3.78;;;27.70;29.70;;;;;;4993572;28;20101;-65
2021/06/03 11:42:29;;;;;;;9.07;4.20;;;27.80;29.10;;;;;;4998054;28;20050;-65
2021/06/03 11:45:12;;;;;;;7.32;4.18;;;27.90;29.10;;;;;;4993176;28;20032;-65
2021/06/03 11:47:39;;;;;;;6.70;3.83;;;27.90;28.80;;;;;;4993654;28;20046;-65
2021/06/03 11:50:16;;;;;;;6.93;3.45;;;28.00;29.10;;;;;;4994350;28;20030;-65
2021/06/03 11:52:55;;;;;;;4.93;2.78;;;28.00;28.60;;;;;;4993287;28;20503;-65
2021/06/03 11:55:35;;;;;;;5.78;2.58;;;28.00;28.10;;;;;;5001988;28;20034;-65
2021/06/03 11:58:18;;;;;;;4.60;2.42;;;28.10;27.20;;;;;;5011618;28;20080;-65
2021/06/03 12:00:55;;;;;;;6.95;3.65;;;28.10;27.30;;;;;;5012968;28;20060;-65
2021/06/03 12:03:29;;;;;;;6.78;3.42;;;28.20;28.00;;;;;;5007961;28;20042;-65
2021/06/03 12:05:58;;;;;;;4.70;2.42;;;28.20;27.10;;;;;;4993633;28;20062;-65
2021/06/03 12:08:36;;;;;;;7.15;3.60;;;28.30;27.10;;;;;;4993419;28;20029;-66
2021/06/03 12:11:05;;;;;;;6.72;4.05;;;28.30;27.60;;;;;;4993317;28;20496;-64
2021/06/03 12:13:31;;;;;;;7.32;3.45;;;28.40;27.40;;;;;;4991976;28;20445;-64
2021/06/03 12:15:57;;;;;;;4.60;3.15;;;28.40;27.50;;;;;;4993412;28;20042;-64
2021/06/03 12:18:23;;;;;;;3.22;2.30;;;28.50;27.30;;;;;;4991812;28;20023;-66
2021/06/03 12:20:50;;;;;;;3.15;2.13;;;28.50;26.50;;;;;;4993166;28;20066;-66
2021/06/03 12:23:16;;;;;;;3.22;2.42;;;28.60;26.60;;;;;;4993311;28;20030;-64
2021/06/03 12:25:43;;;;;;;5.05;2.67;;;28.60;26.90;;;;;;4993417;28;20027;-64
2021/06/03 12:28:11;;;;;;;5.45;3.03;;;28.70;27.20;;;;;;4993245;28;20485;-64
2021/06/03 12:30:40;;;;;;;7.35;3.25;;;28.70;27.30;;;;;;4993167;28;20118;-66
2021/06/03 12:33:15;;;;;;;5.47;2.78;;;28.80;27.30;;;;;;4993405;28;20084;-66
2021/06/03 12:35:47;;;;;;;10.32;3.05;;;28.90;26.90;;;;;;4993184;28;20019;-64
2021/06/03 12:38:44;;;;;;;4.20;2.80;;;28.90;26.90;;;;;;5008146;28;20110;-64
2021/06/03 12:41:30;;;;;;;6.30;2.40;;;29.00;27.20;;;;;;4997959;28;20042;-64
2021/06/03 12:44:01;;;;;;;3.03;2.05;;;29.00;27.10;;;;;;5012741;28;20036;-64
2021/06/03 12:46:36;;;;;;;3.00;2.45;;;29.10;27.00;;;;;;5012591;28;20026;-64
2021/06/03 12:49:06;;;;;;;5.28;3.00;;;29.10;26.70;;;;;;5012739;28;20097;-63
2021/06/03 12:51:33;;;;;;;4.50;2.38;;;29.20;26.70;;;;;;5012350;28;20034;-64
2021/06/03 12:53:59;;;;;;;4.60;2.38;;;29.20;26.50;;;;;;5012992;28;20087;-64
2021/06/03 12:56:25;;;;;;;6.32;2.30;;;29.20;26.40;;;;;;5016365;28;20029;-64
2021/06/03 12:58:52;;;;;;;5.63;3.05;;;29.20;26.70;;;;;;5015963;28;20105;-64